Terminal Aerodrome Forecast
Issued by NWS

Home | Current Version | Previous Version | Text Only | Print | Product List | Glossary Off
Versions: 1 2 3 4 5 6 7 8 9 10 11 12 13

126
FTUS43 KGRB 161733
TAFCWA
TAF
KCWA 161733Z 1618/1718 14007KT P6SM BKN120
     FM170600 12003KT 6SM BR FEW005 SCT120
     FM170900 12003KT 3SM BR BKN004
      TEMPO 1709/1713 2SM BR SCT004
     FM171400 15004KT 6SM BR SCT004=

USA.gov is the U.S. government's official web portal to all federal, state and local government web resources and services.